createdAt,value
2018-03-31T00:00:25.487Z,98.45
2018-03-31T00:01:25.507Z,98.45
2018-03-31T00:02:25.463Z,97.50
2018-03-31T00:03:25.466Z,97.88
2018-03-31T00:04:25.464Z,97.69
2018-03-31T00:05:25.424Z,97.50
2018-03-31T00:06:25.449Z,97.50
2018-03-31T00:07:25.403Z,97.97
2018-03-31T00:08:25.400Z,97.69
2018-03-31T00:09:25.381Z,97.97
2018-03-31T00:10:25.360Z,98.64
2018-03-31T00:11:25.347Z,98.16
2018-03-31T00:12:25.334Z,98.26
2018-03-31T00:13:25.322Z,97.88
2018-03-31T00:14:25.321Z,98.45
2018-03-31T00:15:25.328Z,98.73
2018-03-31T00:16:25.298Z,98.45
2018-03-31T00:17:25.271Z,98.45
2018-03-31T00:18:25.262Z,98.92
2018-03-31T00:19:25.248Z,98.26
2018-03-31T00:20:25.242Z,98.64
2018-03-31T00:21:25.252Z,98.64
2018-03-31T00:22:25.208Z,98.45
2018-03-31T00:23:25.192Z,98.54
2018-03-31T00:24:25.185Z,98.73
2018-03-31T00:25:25.173Z,98.21
2018-03-31T00:26:25.154Z,98.40
2018-03-31T00:27:25.141Z,98.49
2018-03-31T00:28:25.128Z,99.16
2018-03-31T00:29:25.118Z,98.87
2018-03-31T00:30:25.103Z,99.91
2018-03-31T00:31:25.154Z,99.82
2018-03-31T00:32:25.108Z,99.99
2018-03-31T00:33:25.083Z,99.99
2018-03-31T00:34:25.066Z,99.73
2018-03-31T00:35:25.075Z,99.63
2018-03-31T00:36:25.025Z,99.99
2018-03-31T00:37:25.030Z,99.63
2018-03-31T00:38:25.045Z,99.73
2018-03-31T00:39:24.999Z,99.91
2018-03-31T00:40:24.974Z,99.91
2018-03-31T00:41:24.985Z,99.91
2018-03-31T00:42:24.948Z,99.99
2018-03-31T00:43:24.935Z,99.99
2018-03-31T00:44:24.922Z,99.99
2018-03-31T00:45:24.909Z,99.99
2018-03-31T00:46:24.899Z,99.99
2018-03-31T00:47:24.882Z,99.99
2018-03-31T00:48:24.895Z,99.99
2018-03-31T00:49:24.864Z,99.99
2018-03-31T00:50:24.871Z,99.99
2018-03-31T00:51:24.830Z,99.99
2018-03-31T00:52:24.818Z,99.99
2018-03-31T00:53:24.804Z,99.99
2018-03-31T00:54:24.813Z,99.99
2018-03-31T00:55:24.780Z,99.99
2018-03-31T00:56:24.786Z,99.99
2018-03-31T00:57:24.753Z,99.99
2018-03-31T00:58:24.739Z,99.99
2018-03-31T00:59:24.727Z,99.99
2018-03-31T01:00:24.713Z,99.99
2018-03-31T01:01:24.700Z,99.99
2018-03-31T01:02:24.688Z,99.99
2018-03-31T01:03:24.673Z,99.99
2018-03-31T01:04:24.666Z,99.99
2018-03-31T01:05:24.648Z,99.99
2018-03-31T01:06:24.660Z,99.99
2018-03-31T01:07:24.631Z,99.99
2018-03-31T01:08:24.655Z,99.99
2018-03-31T01:09:24.596Z,99.99
2018-03-31T01:10:24.582Z,99.99
2018-03-31T01:11:24.607Z,99.99
2018-03-31T01:12:24.556Z,99.99
2018-03-31T01:13:24.544Z,99.99
2018-03-31T01:14:24.576Z,99.99
2018-03-31T01:15:24.516Z,99.99
2018-03-31T01:16:24.505Z,99.99
2018-03-31T01:17:24.496Z,99.99
2018-03-31T01:18:24.477Z,99.99
2018-03-31T01:19:24.464Z,99.99
2018-03-31T01:20:24.450Z,99.99
2018-03-31T01:21:24.437Z,99.99
2018-03-31T01:22:24.424Z,99.99
2018-03-31T01:23:24.448Z,99.99
2018-03-31T01:24:24.414Z,99.99
2018-03-31T01:25:24.385Z,99.99
2018-03-31T01:26:24.381Z,99.99
2018-03-31T01:27:24.360Z,99.99
2018-03-31T01:28:24.344Z,99.99
2018-03-31T01:29:24.358Z,99.99
2018-03-31T01:30:24.331Z,99.99
2018-03-31T01:31:24.305Z,99.99
2018-03-31T01:32:24.298Z,99.99
2018-03-31T01:33:24.279Z,99.99
2018-03-31T01:34:24.266Z,99.99
2018-03-31T01:35:24.251Z,99.99
2018-03-31T01:36:24.238Z,99.99
2018-03-31T01:37:24.225Z,99.99
2018-03-31T01:38:24.212Z,99.99
2018-03-31T01:39:24.198Z,99.99
2018-03-31T01:40:24.184Z,99.99
2018-03-31T01:41:24.195Z,99.99
2018-03-31T01:42:24.163Z,99.99
2018-03-31T01:43:24.361Z,99.99
2018-03-31T01:44:24.130Z,99.99
2018-03-31T01:45:24.117Z,99.99
2018-03-31T01:46:24.124Z,99.99
2018-03-31T01:47:24.119Z,99.99
2018-03-31T01:48:24.076Z,99.99
2018-03-31T01:49:24.104Z,99.99
2018-03-31T01:50:24.051Z,99.99
2018-03-31T01:51:24.043Z,99.99
2018-03-31T01:52:24.034Z,99.99
2018-03-31T01:53:24.010Z,99.99
2018-03-31T01:54:23.995Z,99.99
2018-03-31T01:55:23.981Z,99.99
2018-03-31T01:56:23.968Z,99.99
2018-03-31T01:57:23.955Z,99.99
2018-03-31T01:58:23.942Z,99.99
2018-03-31T01:59:23.950Z,99.99
2018-03-31T02:00:23.915Z,99.99
2018-03-31T02:01:23.917Z,99.99
2018-03-31T02:02:23.887Z,99.99
2018-03-31T02:03:23.873Z,99.99
2018-03-31T02:04:23.865Z,99.99
2018-03-31T02:05:23.857Z,99.99
2018-03-31T02:06:24.057Z,99.99
2018-03-31T02:07:23.823Z,99.99
2018-03-31T02:08:23.812Z,99.99
2018-03-31T02:09:23.813Z,99.99
2018-03-31T02:10:23.779Z,99.99
2018-03-31T02:11:23.764Z,99.99
2018-03-31T02:12:23.752Z,99.99
2018-03-31T02:13:23.738Z,99.99
2018-03-31T02:14:23.725Z,99.99
2018-03-31T02:15:23.712Z,99.99
2018-03-31T02:16:23.716Z,99.99
2018-03-31T02:17:23.691Z,99.99
2018-03-31T02:18:23.699Z,99.99
2018-03-31T02:19:23.658Z,99.99
2018-03-31T02:20:23.644Z,99.99
2018-03-31T02:21:23.630Z,99.99
2018-03-31T02:22:23.618Z,99.99
2018-03-31T02:23:23.605Z,99.99
2018-03-31T02:24:23.613Z,99.99
2018-03-31T02:25:23.576Z,99.99
2018-03-31T02:26:23.563Z,99.99
2018-03-31T02:27:23.549Z,99.99
2018-03-31T02:28:23.536Z,99.99
2018-03-31T02:29:23.522Z,99.99
2018-03-31T02:30:23.509Z,99.99
2018-03-31T02:31:23.495Z,99.99
2018-03-31T02:32:23.482Z,99.99
2018-03-31T02:33:23.471Z,99.99
2018-03-31T02:34:23.469Z,99.99
2018-03-31T02:35:23.465Z,99.99
2018-03-31T02:36:23.451Z,99.99
2018-03-31T02:37:23.416Z,99.99
2018-03-31T02:38:23.436Z,99.99
2018-03-31T02:39:23.386Z,99.99
2018-03-31T02:40:23.377Z,99.99
2018-03-31T02:42:23.365Z,99.99
2018-03-31T02:43:23.332Z,99.99
2018-03-31T02:44:23.349Z,99.99
2018-03-31T02:45:23.307Z,99.99
2018-03-31T02:46:23.300Z,99.99
2018-03-31T02:47:23.280Z,99.99
2018-03-31T02:48:23.272Z,99.99
2018-03-31T02:49:23.254Z,99.99
2018-03-31T02:50:23.240Z,99.99
2018-03-31T02:51:23.225Z,99.99
2018-03-31T02:52:23.224Z,99.99
2018-03-31T02:53:23.301Z,99.99
2018-03-31T02:54:23.192Z,99.99
2018-03-31T02:55:23.171Z,99.99
2018-03-31T02:56:23.160Z,99.99
2018-03-31T02:57:23.146Z,99.99
2018-03-31T02:58:23.140Z,99.99
2018-03-31T02:59:23.149Z,99.99
2018-03-31T03:00:23.109Z,99.99
2018-03-31T03:01:23.088Z,99.99
2018-03-31T03:02:23.076Z,99.99
2018-03-31T03:03:23.065Z,99.99
2018-03-31T03:04:23.060Z,99.99
2018-03-31T03:05:23.033Z,99.99
2018-03-31T03:06:23.020Z,99.99
2018-03-31T03:07:23.004Z,99.99
2018-03-31T03:08:22.991Z,99.99
2018-03-31T03:09:22.978Z,99.99
2018-03-31T03:10:22.964Z,99.99
2018-03-31T03:11:22.972Z,99.99
2018-03-31T03:12:22.937Z,99.99
2018-03-31T03:13:22.941Z,99.99
2018-03-31T03:14:22.909Z,99.99
2018-03-31T03:15:22.894Z,99.99
2018-03-31T03:16:22.880Z,99.99
2018-03-31T03:17:22.887Z,99.99
2018-03-31T03:18:22.853Z,99.99
2018-03-31T03:19:22.855Z,99.99
2018-03-31T03:20:22.824Z,99.99
2018-03-31T03:21:22.811Z,99.99
2018-03-31T03:22:22.799Z,99.99
2018-03-31T03:23:22.782Z,99.99
2018-03-31T03:24:22.768Z,99.99
2018-03-31T03:25:22.755Z,99.99
2018-03-31T03:26:22.741Z,99.99
2018-03-31T03:27:22.726Z,99.99
2018-03-31T03:28:22.712Z,99.99
2018-03-31T03:29:22.715Z,99.99
2018-03-31T03:30:22.711Z,99.99
2018-03-31T03:31:22.690Z,99.99
2018-03-31T03:32:22.657Z,99.99
2018-03-31T03:33:22.677Z,99.99
2018-03-31T03:34:22.626Z,99.99
2018-03-31T03:35:22.611Z,99.99
2018-03-31T03:36:22.603Z,99.99
2018-03-31T03:37:22.604Z,99.99
2018-03-31T03:38:22.569Z,99.99
2018-03-31T03:39:22.591Z,99.99
2018-03-31T03:40:22.540Z,99.99
2018-03-31T03:41:22.526Z,99.99
2018-03-31T03:42:22.528Z,99.99
2018-03-31T03:43:22.497Z,99.99
2018-03-31T03:44:22.483Z,99.99
2018-03-31T03:45:22.468Z,99.99
2018-03-31T03:46:22.454Z,99.99
2018-03-31T03:47:22.439Z,99.99
2018-03-31T03:48:22.425Z,99.99
2018-03-31T03:49:22.428Z,99.99
2018-03-31T03:50:22.396Z,99.99
2018-03-31T03:51:22.403Z,99.99
2018-03-31T03:52:22.368Z,99.99
2018-03-31T03:53:22.352Z,99.99
2018-03-31T03:54:22.338Z,99.99
2018-03-31T03:55:22.323Z,99.99
2018-03-31T03:56:22.311Z,99.99
2018-03-31T03:57:22.317Z,99.99
2018-03-31T03:58:22.280Z,99.99
2018-03-31T03:59:22.264Z,99.99
2018-03-31T04:00:22.250Z,99.99
2018-03-31T04:01:22.235Z,99.99
2018-03-31T04:02:22.221Z,99.99
2018-03-31T04:03:22.207Z,99.99
2018-03-31T04:04:22.191Z,99.99
2018-03-31T04:05:22.178Z,99.99
2018-03-31T04:06:22.162Z,99.99
2018-03-31T04:07:22.147Z,99.99
2018-03-31T04:08:22.132Z,99.99
2018-03-31T04:09:22.137Z,99.99
2018-03-31T04:10:22.156Z,99.99
2018-03-31T04:11:22.102Z,99.99
2018-03-31T04:12:22.074Z,99.99
2018-03-31T04:13:22.089Z,99.99
2018-03-31T04:14:22.044Z,99.99
2018-03-31T04:15:22.034Z,99.99
2018-03-31T04:16:22.072Z,99.99
2018-03-31T04:17:22.018Z,99.99
2018-03-31T04:18:21.985Z,99.99
2018-03-31T04:19:22.004Z,99.99
2018-03-31T04:20:21.955Z,99.99
2018-03-31T04:21:21.940Z,99.99
2018-03-31T04:22:21.930Z,99.99
2018-03-31T04:23:21.911Z,99.99
2018-03-31T04:24:21.916Z,99.99
2018-03-31T04:25:21.881Z,99.99
2018-03-31T04:26:21.867Z,99.99
2018-03-31T04:27:21.851Z,99.99
2018-03-31T04:28:21.842Z,99.99
2018-03-31T04:29:21.845Z,99.99
2018-03-31T04:30:21.811Z,99.99
2018-03-31T04:31:21.819Z,99.99
2018-03-31T04:32:21.777Z,99.99
2018-03-31T04:33:21.762Z,99.99
2018-03-31T04:34:21.748Z,99.99
2018-03-31T04:35:21.732Z,99.99
2018-03-31T04:36:21.726Z,99.99
2018-03-31T04:37:21.790Z,99.99
2018-03-31T04:38:21.697Z,99.99
2018-03-31T04:39:21.673Z,99.99
2018-03-31T04:40:21.671Z,99.99
2018-03-31T04:41:21.644Z,99.99
2018-03-31T04:42:21.629Z,99.99
2018-03-31T04:43:21.613Z,99.99
2018-03-31T04:44:21.598Z,99.99
2018-03-31T04:45:21.584Z,99.99
2018-03-31T04:46:21.569Z,99.99
2018-03-31T04:47:21.553Z,99.99
2018-03-31T04:48:21.541Z,99.99
2018-03-31T04:49:21.553Z,99.99
2018-03-31T04:50:21.510Z,99.99
2018-03-31T04:51:21.494Z,99.99
2018-03-31T04:52:21.495Z,99.99
2018-03-31T04:53:21.465Z,99.99
2018-03-31T04:54:21.451Z,99.99
2018-03-31T04:55:21.449Z,99.99
2018-03-31T04:56:21.454Z,99.99
2018-03-31T04:57:21.410Z,99.99
2018-03-31T04:58:21.438Z,99.99
2018-03-31T04:59:21.380Z,99.99
2018-03-31T05:00:21.362Z,99.99
2018-03-31T05:01:21.360Z,99.99
2018-03-31T05:02:21.332Z,99.99
2018-03-31T05:03:21.317Z,99.99
2018-03-31T05:04:21.301Z,99.99
2018-03-31T05:05:21.287Z,99.99
2018-03-31T05:06:21.272Z,99.99
2018-03-31T05:07:21.257Z,99.99
2018-03-31T05:08:21.242Z,99.99
2018-03-31T05:09:21.234Z,99.99
2018-03-31T05:10:21.218Z,99.99
2018-03-31T05:11:21.400Z,99.99
2018-03-31T05:12:21.183Z,99.99
2018-03-31T05:13:21.226Z,99.99
2018-03-31T05:14:21.152Z,99.99
2018-03-31T05:15:21.196Z,99.99
2018-03-31T05:16:21.122Z,99.99
2018-03-31T05:17:21.107Z,99.99
2018-03-31T05:18:21.093Z,99.99
2018-03-31T05:19:21.077Z,99.99
2018-03-31T05:20:21.067Z,99.99
2018-03-31T05:21:21.049Z,99.99
2018-03-31T05:22:21.034Z,99.99
2018-03-31T05:23:21.018Z,99.99
2018-03-31T05:24:21.004Z,99.99
2018-03-31T05:25:20.988Z,99.99
2018-03-31T05:26:20.998Z,99.99
2018-03-31T05:27:21.218Z,99.99
2018-03-31T05:28:20.946Z,99.99
2018-03-31T05:29:20.929Z,99.99
2018-03-31T05:30:21.019Z,99.99
2018-03-31T05:31:20.901Z,99.99
2018-03-31T05:32:20.889Z,99.99
2018-03-31T05:33:20.954Z,99.99
2018-03-31T05:34:20.860Z,99.99
2018-03-31T05:35:20.840Z,99.99
2018-03-31T05:36:20.858Z,99.99
2018-03-31T05:37:20.811Z,99.99
2018-03-31T05:38:20.799Z,99.99
2018-03-31T05:39:20.780Z,99.99
2018-03-31T05:40:20.765Z,99.99
2018-03-31T05:41:20.757Z,99.99
2018-03-31T05:42:20.737Z,99.99
2018-03-31T05:43:20.722Z,99.99
2018-03-31T05:44:20.707Z,99.99
2018-03-31T05:45:20.692Z,99.99
2018-03-31T05:46:20.677Z,99.99
2018-03-31T05:47:20.662Z,99.86
2018-03-31T05:48:20.649Z,99.86
2018-03-31T05:49:20.636Z,99.58
2018-03-31T05:50:20.710Z,99.58
2018-03-31T05:51:20.603Z,99.01
2018-03-31T05:52:20.588Z,99.10
2018-03-31T05:53:20.623Z,98.16
2018-03-31T05:54:20.560Z,98.06
2018-03-31T05:55:20.546Z,97.97
2018-03-31T05:56:20.531Z,98.06
2018-03-31T05:57:20.515Z,98.06
2018-03-31T05:58:20.502Z,98.25
2018-03-31T05:59:20.484Z,97.87
2018-03-31T06:00:20.476Z,98.25
2018-03-31T06:01:20.463Z,98.63
2018-03-31T06:02:20.441Z,98.44
2018-03-31T06:03:20.428Z,98.91
2018-03-31T06:04:20.412Z,98.63
2018-03-31T06:05:20.406Z,98.06
2018-03-31T06:06:20.382Z,99.10
2018-03-31T06:07:20.366Z,99.01
2018-03-31T06:08:20.352Z,98.82
2018-03-31T06:09:20.337Z,98.25
2018-03-31T06:10:20.323Z,98.82
2018-03-31T06:11:20.307Z,98.82
2018-03-31T06:12:20.293Z,98.82
2018-03-31T06:13:20.278Z,98.72
2018-03-31T06:14:20.369Z,98.91
2018-03-31T06:15:20.248Z,98.44
2018-03-31T06:16:20.234Z,98.25
2018-03-31T06:17:20.290Z,97.68
2018-03-31T06:18:20.209Z,97.68
2018-03-31T06:19:20.189Z,97.11
2018-03-31T06:20:20.223Z,97.11
2018-03-31T06:21:20.161Z,96.64
2018-03-31T06:22:20.147Z,96.92
2018-03-31T06:23:20.182Z,96.17
2018-03-31T06:24:20.122Z,95.88
2018-03-31T06:25:20.103Z,95.50
2018-03-31T06:26:20.104Z,95.79
2018-03-31T06:27:20.074Z,95.69
2018-03-31T06:28:20.061Z,96.41
2018-03-31T06:29:20.044Z,95.22
2018-03-31T06:30:20.033Z,95.74
2018-03-31T06:31:20.016Z,95.17
2018-03-31T06:32:20.002Z,94.70
2018-03-31T06:33:19.988Z,95.07
2018-03-31T06:34:20.208Z,95.07
2018-03-31T06:35:19.959Z,94.98
2018-03-31T06:36:19.945Z,94.70
2018-03-31T06:37:20.052Z,94.79
2018-03-31T06:38:19.917Z,94.04
2018-03-31T06:39:19.902Z,94.32
2018-03-31T06:40:20.094Z,94.04
2018-03-31T06:41:19.908Z,93.65
2018-03-31T06:42:19.861Z,93.65
2018-03-31T06:43:19.896Z,93.51
2018-03-31T06:44:19.833Z,92.94
2018-03-31T06:45:19.819Z,92.66
2018-03-31T06:46:19.808Z,91.71
2018-03-31T06:47:19.795Z,91.33
2018-03-31T06:48:19.781Z,91.61
2018-03-31T06:49:19.765Z,91.33
2018-03-31T06:50:19.750Z,91.90
2018-03-31T06:51:19.735Z,91.80
2018-03-31T06:52:19.722Z,92.38
2018-03-31T06:53:19.708Z,92.28
2018-03-31T06:54:19.898Z,91.24
2018-03-31T06:55:19.681Z,91.90
2018-03-31T06:56:19.670Z,92.28
2018-03-31T06:57:19.857Z,91.33
2018-03-31T06:58:19.699Z,90.86
2018-03-31T06:59:19.627Z,89.91
2018-03-31T07:00:19.695Z,90.76
2018-03-31T07:01:19.599Z,90.95
2018-03-31T07:02:19.587Z,91.05
2018-03-31T07:03:19.593Z,90.76
2018-03-31T07:04:19.562Z,91.19
2018-03-31T07:05:19.753Z,90.43
2018-03-31T07:06:19.533Z,89.67
2018-03-31T07:07:19.519Z,89.67
2018-03-31T07:08:19.592Z,89.29
2018-03-31T07:09:19.496Z,88.48
2018-03-31T07:10:19.480Z,88.67
2018-03-31T07:11:19.547Z,89.05
2018-03-31T07:12:19.454Z,89.24
2018-03-31T07:13:19.443Z,88.39
2018-03-31T07:14:19.432Z,87.72
2018-03-31T07:15:19.425Z,88.20
2018-03-31T07:16:19.405Z,88.15
2018-03-31T07:17:19.391Z,88.24
2018-03-31T07:18:19.378Z,87.67
2018-03-31T07:19:19.366Z,87.10
2018-03-31T07:20:19.362Z,87.01
2018-03-31T07:21:19.342Z,85.77
2018-03-31T07:22:19.463Z,84.82
2018-03-31T07:23:19.317Z,85.24
2018-03-31T07:24:19.305Z,84.86
2018-03-31T07:26:19.281Z,84.95
2018-03-31T07:27:19.270Z,84.58
2018-03-31T07:28:19.303Z,84.29
2018-03-31T07:29:19.246Z,84.20
2018-03-31T07:30:19.243Z,84.72
2018-03-31T07:31:19.242Z,83.39
2018-03-31T07:32:19.213Z,82.53
2018-03-31T07:33:19.203Z,81.81
2018-03-31T07:34:19.193Z,81.81
2018-03-31T07:35:19.183Z,80.38
2018-03-31T07:36:19.197Z,79.91
2018-03-31T07:37:19.166Z,79.43
2018-03-31T07:38:19.162Z,79.52
2018-03-31T07:39:19.226Z,78.67
2018-03-31T07:40:19.145Z,80.00
2018-03-31T07:41:19.143Z,79.75
2018-03-31T07:42:19.147Z,78.52
2018-03-31T07:43:19.119Z,78.14
2018-03-31T07:44:19.115Z,78.23
2018-03-31T07:45:19.108Z,77.47
2018-03-31T07:46:19.106Z,77.42
2018-03-31T07:47:19.097Z,77.80
2018-03-31T07:48:19.092Z,76.03
2018-03-31T07:49:19.088Z,74.40
2018-03-31T07:51:19.081Z,73.87
2018-03-31T07:52:19.083Z,73.77
2018-03-31T07:53:19.120Z,72.63
2018-03-31T07:54:19.078Z,70.95
2018-03-31T07:55:19.072Z,68.53
2018-03-31T07:56:19.071Z,67.86
2018-03-31T07:57:19.070Z,67.48
2018-03-31T07:58:19.069Z,68.24
2018-03-31T07:59:19.068Z,67.48
2018-03-31T08:00:19.067Z,67.71
2018-03-31T08:01:19.116Z,67.71
2018-03-31T08:02:19.067Z,65.99
2018-03-31T08:03:19.068Z,67.14
2018-03-31T08:04:19.069Z,66.38
2018-03-31T08:05:19.122Z,65.52
2018-03-31T08:06:19.068Z,65.13
2018-03-31T08:07:19.068Z,65.80
2018-03-31T08:08:19.069Z,65.42
2018-03-31T08:09:19.069Z,65.42
2018-03-31T08:10:19.070Z,65.33
2018-03-31T08:11:19.071Z,66.38
2018-03-31T08:12:19.071Z,65.52
2018-03-31T08:13:19.160Z,65.13
2018-03-31T08:14:19.073Z,66.75
2018-03-31T08:15:19.073Z,65.99
2018-03-31T08:16:19.127Z,65.52
2018-03-31T08:17:19.122Z,64.65
2018-03-31T08:18:19.076Z,66.28
2018-03-31T08:19:19.077Z,66.28
2018-03-31T08:20:19.080Z,65.70
2018-03-31T08:21:19.079Z,64.65
2018-03-31T08:22:19.082Z,65.36
2018-03-31T08:23:19.081Z,64.21
2018-03-31T08:24:19.147Z,62.59
2018-03-31T08:25:19.086Z,62.21
2018-03-31T08:26:19.088Z,63.16
2018-03-31T08:27:19.088Z,63.07
2018-03-31T08:28:19.092Z,62.15
2018-03-31T08:29:19.094Z,61.29
2018-03-31T08:30:19.104Z,61.25
2018-03-31T08:31:19.096Z,62.02
2018-03-31T08:32:19.098Z,62.78
2018-03-31T08:33:19.100Z,61.44
2018-03-31T08:34:19.104Z,61.83
2018-03-31T08:35:19.158Z,62.68
2018-03-31T08:36:19.107Z,62.21
2018-03-31T08:37:19.110Z,61.92
2018-03-31T08:38:19.111Z,61.83
2018-03-31T08:39:19.112Z,62.15
2018-03-31T08:40:19.117Z,61.29
2018-03-31T08:41:19.124Z,61.10
2018-03-31T08:42:19.120Z,61.47
2018-03-31T08:43:19.193Z,60.55
2018-03-31T08:44:19.125Z,59.66
2018-03-31T08:45:19.127Z,61.13
2018-03-31T08:46:19.154Z,60.36
2018-03-31T08:47:19.136Z,59.98
2018-03-31T08:48:19.137Z,59.69
2018-03-31T08:49:19.141Z,59.66
2018-03-31T08:50:19.143Z,59.38
2018-03-31T08:51:19.221Z,59.31
2018-03-31T08:52:19.149Z,59.53
2018-03-31T08:53:19.153Z,58.86
2018-03-31T08:54:19.212Z,58.76
2018-03-31T08:55:19.160Z,58.03
2018-03-31T08:56:19.165Z,57.46
2018-03-31T08:57:19.170Z,56.98
2018-03-31T08:58:19.174Z,57.17
2018-03-31T08:59:19.179Z,56.09
2018-03-31T09:00:19.184Z,56.28
2018-03-31T09:01:19.190Z,56.28
2018-03-31T09:02:19.397Z,56.25
2018-03-31T09:03:19.197Z,57.02
2018-03-31T09:04:19.277Z,56.82
2018-03-31T09:05:19.207Z,56.85
2018-03-31T09:06:19.211Z,57.59
2018-03-31T09:07:19.213Z,58.16
2018-03-31T09:08:19.218Z,57.87
2018-03-31T09:09:19.276Z,57.78
2018-03-31T09:10:19.225Z,56.92
2018-03-31T09:11:19.230Z,57.78
2018-03-31T09:12:19.434Z,56.82
2018-03-31T09:13:19.236Z,57.09
2018-03-31T09:14:19.237Z,56.92
2018-03-31T09:15:19.282Z,56.25
2018-03-31T09:16:19.244Z,56.45
2018-03-31T09:17:19.242Z,57.02
2018-03-31T09:18:19.244Z,56.38
2018-03-31T09:19:19.247Z,55.99
2018-03-31T09:20:19.252Z,55.52
2018-03-31T09:21:19.263Z,55.52
2018-03-31T09:22:19.253Z,56.28
2018-03-31T09:24:19.260Z,55.16
2018-03-31T09:25:19.265Z,55.16
2018-03-31T09:26:19.266Z,55.16
2018-03-31T09:27:19.265Z,55.74
2018-03-31T09:28:19.269Z,57.97
2018-03-31T09:29:19.272Z,55.67
2018-03-31T09:30:19.277Z,53.63
2018-03-31T09:31:19.377Z,53.66
2018-03-31T09:32:19.284Z,53.25
2018-03-31T09:33:19.290Z,53.66
2018-03-31T09:34:19.308Z,54.61
2018-03-31T09:35:19.300Z,53.20
2018-03-31T09:36:19.311Z,53.08
2018-03-31T09:37:19.312Z,52.99
2018-03-31T09:38:19.317Z,52.22
2018-03-31T09:39:19.330Z,52.25
2018-03-31T09:40:19.333Z,52.73
2018-03-31T09:41:19.333Z,52.13
2018-03-31T09:42:19.370Z,52.03
2018-03-31T09:43:19.352Z,52.29
2018-03-31T09:44:19.348Z,52.10
2018-03-31T09:45:19.351Z,52.65
2018-03-31T09:46:19.359Z,54.27
2018-03-31T09:47:19.357Z,54.85
2018-03-31T09:48:19.361Z,55.01
2018-03-31T09:49:19.360Z,54.63
2018-03-31T09:50:19.417Z,54.63
2018-03-31T09:51:19.360Z,55.11
2018-03-31T09:52:19.362Z,55.40
2018-03-31T09:53:19.360Z,55.40
2018-03-31T09:54:19.359Z,55.01
2018-03-31T09:55:19.357Z,55.68
2018-03-31T09:56:19.357Z,55.68
2018-03-31T09:57:19.357Z,56.73
2018-03-31T09:58:19.374Z,56.92
2018-03-31T09:59:19.350Z,56.23
2018-03-31T10:00:19.364Z,55.27
2018-03-31T10:01:19.396Z,55.75
2018-03-31T10:02:19.341Z,54.99
2018-03-31T10:03:19.342Z,55.36
2018-03-31T10:04:19.334Z,56.32
2018-03-31T10:05:19.549Z,56.13
2018-03-31T10:06:19.332Z,56.32
2018-03-31T10:07:19.324Z,57.18
2018-03-31T10:08:19.420Z,57.94
2018-03-31T10:09:19.317Z,57.65
2018-03-31T10:10:19.315Z,58.23
2018-03-31T10:11:19.332Z,57.65
2018-03-31T10:12:19.305Z,55.27
2018-03-31T10:13:19.302Z,55.55
2018-03-31T10:14:19.301Z,55.55
2018-03-31T10:15:19.294Z,55.84
2018-03-31T10:16:19.295Z,56.13
2018-03-31T10:17:19.291Z,55.77
2018-03-31T10:18:19.284Z,55.58
2018-03-31T10:19:19.484Z,55.01
2018-03-31T10:20:19.279Z,54.72
2018-03-31T10:21:19.276Z,53.86
2018-03-31T10:22:19.316Z,54.25
2018-03-31T10:23:19.270Z,54.37
2018-03-31T10:24:19.272Z,54.27
2018-03-31T10:25:19.268Z,53.13
2018-03-31T10:26:19.263Z,53.89
2018-03-31T10:27:19.260Z,53.80
2018-03-31T10:28:19.258Z,53.22
2018-03-31T10:29:19.284Z,54.94
2018-03-31T10:30:19.457Z,54.56
2018-03-31T10:31:19.253Z,54.37
2018-03-31T10:32:19.252Z,54.37
2018-03-31T10:33:19.252Z,54.59
2018-03-31T10:34:19.266Z,54.27
2018-03-31T10:35:19.270Z,54.37
2018-03-31T10:36:19.243Z,54.37
2018-03-31T10:37:19.244Z,53.70
2018-03-31T10:38:19.243Z,53.51
2018-03-31T10:39:19.238Z,53.99
2018-03-31T10:40:19.241Z,53.39
2018-03-31T10:41:19.279Z,53.29
2018-03-31T10:42:19.233Z,52.81
2018-03-31T10:43:19.230Z,53.49
2018-03-31T10:44:19.251Z,53.77
2018-03-31T10:45:19.227Z,53.29
2018-03-31T10:46:19.221Z,54.34
2018-03-31T10:47:19.221Z,53.67
2018-03-31T10:48:19.214Z,54.44
2018-03-31T10:49:19.210Z,54.44
2018-03-31T10:50:19.208Z,53.10
2018-03-31T10:51:19.203Z,53.03
2018-03-31T10:52:19.404Z,53.03
2018-03-31T10:53:19.199Z,53.06
2018-03-31T10:54:19.200Z,52.10
2018-03-31T10:55:19.245Z,53.82
2018-03-31T10:56:19.194Z,52.20
2018-03-31T10:57:19.193Z,52.10
2018-03-31T10:58:19.194Z,51.72
2018-03-31T10:59:19.189Z,51.91
2018-03-31T11:00:19.201Z,50.57
2018-03-31T11:01:19.186Z,50.29
2018-03-31T11:02:19.186Z,52.29
2018-03-31T11:03:19.386Z,52.01
2018-03-31T11:04:19.228Z,53.16
2018-03-31T11:05:19.180Z,52.29
2018-03-31T11:06:19.178Z,52.10
2018-03-31T11:07:19.175Z,53.34
2018-03-31T11:08:19.176Z,52.01
2018-03-31T11:10:19.170Z,51.43
2018-03-31T11:11:19.168Z,51.62
2018-03-31T11:12:19.369Z,51.72
2018-03-31T11:13:19.165Z,53.25
2018-03-31T11:14:19.164Z,54.52
2018-03-31T11:15:19.172Z,51.01
2018-03-31T11:16:19.168Z,49.09
2018-03-31T11:17:19.162Z,49.29
2018-03-31T11:18:19.164Z,49.64
2018-03-31T11:19:19.160Z,50.02
2018-03-31T11:21:19.158Z,52.39
2018-03-31T11:22:19.157Z,51.62
2018-03-31T11:23:19.187Z,52.01
2018-03-31T11:24:19.152Z,54.39
2018-03-31T11:25:19.153Z,55.35
2018-03-31T11:26:19.168Z,55.83
2018-03-31T11:27:19.145Z,53.34
2018-03-31T11:28:19.159Z,52.20
2018-03-31T11:29:19.140Z,52.17
2018-03-31T11:30:19.137Z,53.58
2018-03-31T11:31:19.147Z,53.39
2018-03-31T11:32:19.134Z,54.06
2018-03-31T11:33:19.125Z,54.63
2018-03-31T11:34:19.326Z,55.65
2018-03-31T11:35:19.117Z,55.55
2018-03-31T11:36:19.116Z,56.25
2018-03-31T11:37:19.107Z,55.58
2018-03-31T11:38:19.105Z,54.82
2018-03-31T11:39:19.096Z,55.68
2018-03-31T11:40:19.091Z,55.11
2018-03-31T11:41:19.086Z,54.34
2018-03-31T11:42:19.173Z,54.22
2018-03-31T11:43:19.076Z,54.13
2018-03-31T11:44:19.069Z,54.63
2018-03-31T11:45:19.122Z,54.53
2018-03-31T11:46:19.059Z,54.03
2018-03-31T11:47:19.052Z,54.70
2018-03-31T11:48:19.046Z,54.60
2018-03-31T11:49:19.040Z,55.36
2018-03-31T11:50:19.034Z,55.55
2018-03-31T11:51:19.028Z,54.53
2018-03-31T11:52:19.024Z,54.99
2018-03-31T11:53:19.016Z,54.60
2018-03-31T11:54:19.010Z,54.82
2018-03-31T11:55:19.003Z,56.06
2018-03-31T11:56:19.213Z,55.36
2018-03-31T11:57:18.991Z,54.89
2018-03-31T11:58:18.988Z,54.99
2018-03-31T11:59:19.005Z,54.70
2018-03-31T12:00:18.972Z,55.36
2018-03-31T12:01:18.966Z,55.08
2018-03-31T12:02:18.968Z,54.79
2018-03-31T12:03:18.960Z,55.46
2018-03-31T12:04:18.951Z,54.99
2018-03-31T12:05:18.943Z,55.27
2018-03-31T12:06:18.934Z,56.04
2018-03-31T12:07:18.929Z,56.51
2018-03-31T12:08:18.920Z,55.94
2018-03-31T12:09:18.915Z,54.99
2018-03-31T12:10:18.906Z,55.05
2018-03-31T12:11:18.898Z,55.34
2018-03-31T12:12:18.893Z,55.72
2018-03-31T12:13:18.946Z,56.38
2018-03-31T12:14:18.878Z,56.96
2018-03-31T12:15:18.870Z,57.24
2018-03-31T12:16:18.881Z,56.58
2018-03-31T12:17:18.857Z,56.67
2018-03-31T12:18:18.856Z,56.96
2018-03-31T12:19:18.844Z,57.53
2018-03-31T12:20:18.835Z,58.68
2018-03-31T12:21:18.827Z,58.77
2018-03-31T12:22:18.821Z,57.92
2018-03-31T12:23:18.812Z,57.72
2018-03-31T12:24:18.805Z,57.37
2018-03-31T12:25:18.798Z,56.58
2018-03-31T12:26:18.791Z,57.82
2018-03-31T12:27:18.986Z,57.18
2018-03-31T12:28:18.784Z,56.29
2018-03-31T12:29:18.772Z,56.87
2018-03-31T12:30:18.965Z,56.60
2018-03-31T12:31:18.754Z,57.09
2018-03-31T12:32:18.746Z,57.09
2018-03-31T12:33:18.741Z,57.85
2018-03-31T12:34:18.732Z,57.09
2018-03-31T12:35:18.726Z,55.91
2018-03-31T12:36:18.722Z,57.63
2018-03-31T12:37:18.710Z,56.96
2018-03-31T12:38:18.716Z,56.77
2018-03-31T12:39:18.695Z,57.82
2018-03-31T12:40:18.688Z,57.34
2018-03-31T12:41:18.719Z,58.68
2018-03-31T12:42:18.675Z,57.53
2018-03-31T12:43:18.665Z,57.06
2018-03-31T12:44:18.692Z,58.61
2018-03-31T12:45:18.651Z,58.61
2018-03-31T12:46:18.644Z,58.04
2018-03-31T12:47:18.638Z,56.60
2018-03-31T12:48:18.630Z,57.65
2018-03-31T12:49:18.623Z,57.75
2018-03-31T12:50:18.617Z,57.94
2018-03-31T12:51:18.609Z,58.70
2018-03-31T12:52:18.858Z,58.70
2018-03-31T12:53:18.594Z,58.51
2018-03-31T12:54:18.590Z,58.33
2018-03-31T12:55:18.677Z,58.70
2018-03-31T12:56:18.572Z,59.28
2018-03-31T12:57:18.565Z,59.38
2018-03-31T12:58:18.593Z,57.63